createdAt,value
2023-05-07T00:00:06.788Z,11.6
2023-05-07T00:01:13.874Z,11.6
2023-05-07T00:02:21.408Z,11.7
2023-05-07T00:03:28.279Z,11.5
2023-05-07T00:04:35.016Z,11.7
2023-05-07T00:05:41.786Z,11.6
2023-05-07T00:06:49.460Z,11.6
2023-05-07T00:07:57.399Z,11.5
2023-05-07T00:09:03.046Z,11.6
2023-05-07T00:10:10.118Z,11.5
2023-05-07T00:11:16.675Z,11.4
2023-05-07T00:12:23.444Z,11.4
2023-05-07T00:13:30.299Z,11.6
2023-05-07T00:14:37.343Z,11.5
2023-05-07T00:15:45.464Z,11.6
2023-05-07T00:16:52.530Z,11.5
2023-05-07T00:17:59.545Z,11.4
2023-05-07T00:19:07.468Z,11.4
2023-05-07T00:20:15.491Z,11.4
2023-05-07T00:21:22.629Z,11.3
2023-05-07T00:22:29.640Z,11.3
2023-05-07T00:23:36.619Z,11.3
2023-05-07T00:24:43.596Z,11.1
2023-05-07T00:25:50.665Z,11
2023-05-07T00:26:58.064Z,11
2023-05-07T00:28:05.053Z,10.9
2023-05-07T00:29:11.965Z,11.1
2023-05-07T00:30:23.936Z,11.1
2023-05-07T00:31:30.818Z,11.2
2023-05-07T00:32:37.558Z,11.4
2023-05-07T00:33:44.294Z,11.4
2023-05-07T00:34:54.829Z,11.4
2023-05-07T00:36:01.694Z,11.4
2023-05-07T00:37:08.909Z,11.5
2023-05-07T00:38:15.994Z,11.5
2023-05-07T00:39:22.924Z,11.5
2023-05-07T00:40:29.905Z,11.4
2023-05-07T00:41:36.891Z,11.4
2023-05-07T00:42:43.949Z,11.4
2023-05-07T00:43:50.901Z,11.3
2023-05-07T00:44:57.993Z,11.4
2023-05-07T00:46:05.825Z,11.3
2023-05-07T00:47:12.781Z,11.3
2023-05-07T00:48:19.916Z,11.4
2023-05-07T00:49:26.950Z,11.3
2023-05-07T00:50:39.190Z,11.4
2023-05-07T00:51:46.163Z,11.4
2023-05-07T00:52:53.179Z,11.5
2023-05-07T00:54:02.714Z,11.4
2023-05-07T00:55:09.768Z,11.5
2023-05-07T00:56:16.760Z,11.5
2023-05-07T00:57:24.004Z,11.6
2023-05-07T00:58:30.936Z,11.5
2023-05-07T00:59:37.938Z,11.3
2023-05-07T01:00:44.888Z,11.4
2023-05-07T01:01:51.997Z,11.2
2023-05-07T01:02:58.973Z,11.3
2023-05-07T01:04:05.852Z,11.3
2023-05-07T01:05:12.794Z,11.2
2023-05-07T01:06:19.754Z,11.4
2023-05-07T01:07:26.738Z,11.5
2023-05-07T01:08:33.730Z,11.6
2023-05-07T01:09:40.787Z,11.6
2023-05-07T01:10:47.755Z,11.6
2023-05-07T01:11:54.705Z,11.4
2023-05-07T01:13:02.780Z,11.2
2023-05-07T01:14:09.766Z,11.2
2023-05-07T01:15:16.891Z,11.2
2023-05-07T01:16:23.869Z,11.3
2023-05-07T01:17:31.766Z,11.4
2023-05-07T01:18:38.636Z,11.4
2023-05-07T01:19:45.751Z,11.5
2023-05-07T01:20:52.791Z,11.5
2023-05-07T01:22:02.765Z,11.6
2023-05-07T01:23:12.537Z,11.5
2023-05-07T01:24:19.587Z,11.5
2023-05-07T01:25:26.596Z,11.6
2023-05-07T01:26:33.540Z,11.4
2023-05-07T01:27:40.498Z,11.4
2023-05-07T01:28:47.495Z,11.3
2023-05-07T01:29:54.405Z,11.1
2023-05-07T01:31:01.362Z,11.2
2023-05-07T01:32:08.264Z,11.3
2023-05-07T01:33:16.086Z,11.3
2023-05-07T01:34:23.295Z,11.4
2023-05-07T01:35:30.273Z,11.1
2023-05-07T01:36:37.226Z,11.1
2023-05-07T01:37:44.348Z,10.9
2023-05-07T01:38:51.220Z,11
2023-05-07T01:39:58.213Z,11.1
2023-05-07T01:41:05.140Z,10.9
2023-05-07T01:42:12.105Z,11.1
2023-05-07T01:43:19.097Z,11
2023-05-07T01:44:26.096Z,11
2023-05-07T01:45:34.944Z,11
2023-05-07T01:46:41.874Z,10.9
2023-05-07T01:47:48.752Z,11
2023-05-07T01:48:55.595Z,10.8
2023-05-07T01:50:02.600Z,10.9
2023-05-07T01:51:09.768Z,10.9
2023-05-07T01:52:17.642Z,10.9
2023-05-07T01:53:24.672Z,11.1
2023-05-07T01:54:32.695Z,11
2023-05-07T01:55:39.600Z,10.5
2023-05-07T01:56:46.580Z,10.6
2023-05-07T01:57:53.809Z,10.9
2023-05-07T01:59:01.940Z,11
2023-05-07T02:00:08.960Z,10.8
2023-05-07T02:01:16.067Z,10.9
2023-05-07T02:02:22.944Z,11
2023-05-07T02:03:30.242Z,11.1
2023-05-07T02:04:39.652Z,11.1
2023-05-07T02:05:46.607Z,11
2023-05-07T02:06:53.555Z,10.9
2023-05-07T02:08:00.503Z,10.9
2023-05-07T02:09:07.722Z,10.9
2023-05-07T02:10:14.620Z,11
2023-05-07T02:11:21.613Z,10.7
2023-05-07T02:12:28.637Z,10.9
2023-05-07T02:13:35.495Z,11
2023-05-07T02:14:42.392Z,11
2023-05-07T02:15:49.449Z,10.9
2023-05-07T02:16:56.407Z,10.9
2023-05-07T02:18:03.512Z,10.9
2023-05-07T02:19:10.349Z,10.8
2023-05-07T02:20:18.234Z,10.8
2023-05-07T02:21:25.504Z,10.8
2023-05-07T02:22:32.455Z,10.8
2023-05-07T02:23:39.339Z,10.6
2023-05-07T02:24:46.483Z,10.5
2023-05-07T02:25:54.216Z,10.6
2023-05-07T02:27:01.387Z,10.6
2023-05-07T02:28:08.366Z,10.6
2023-05-07T02:29:17.197Z,10.8
2023-05-07T02:30:24.151Z,10.9
2023-05-07T02:31:31.251Z,10.9
2023-05-07T02:32:40.968Z,10.6
2023-05-07T02:33:47.870Z,10.5
2023-05-07T02:34:55.672Z,10.7
2023-05-07T02:36:02.707Z,10.7
2023-05-07T02:37:12.911Z,10.5
2023-05-07T02:38:19.818Z,10.1
2023-05-07T02:39:26.748Z,10.4
2023-05-07T02:40:33.681Z,10.6
2023-05-07T02:41:40.781Z,10.6
2023-05-07T02:42:48.540Z,10.6
2023-05-07T02:43:55.518Z,10.7
2023-05-07T02:45:02.460Z,10.7
2023-05-07T02:46:09.835Z,10.8
2023-05-07T02:47:17.661Z,10.7
2023-05-07T02:48:24.662Z,10.6
2023-05-07T02:49:31.600Z,10.6
2023-05-07T02:50:38.619Z,10.7
2023-05-07T02:51:45.585Z,10.7
2023-05-07T02:52:52.585Z,10.6
2023-05-07T02:53:59.636Z,10.8
2023-05-07T02:55:06.672Z,10.6
2023-05-07T02:56:13.755Z,10.7
2023-05-07T02:57:20.629Z,10.8
2023-05-07T02:58:27.670Z,10.8
2023-05-07T02:59:34.589Z,10.9
2023-05-07T03:00:41.525Z,11
2023-05-07T03:01:48.503Z,11.1
2023-05-07T03:02:55.498Z,11.1
2023-05-07T03:04:02.508Z,11
2023-05-07T03:05:09.447Z,11.1
2023-05-07T03:06:16.417Z,11.1
2023-05-07T03:07:23.380Z,11
2023-05-07T03:08:30.348Z,11
2023-05-07T03:09:37.381Z,11
2023-05-07T03:10:44.609Z,11
2023-05-07T03:11:52.812Z,10.9
2023-05-07T03:12:59.744Z,10.9
2023-05-07T03:14:06.599Z,11
2023-05-07T03:15:13.657Z,10.9
2023-05-07T03:16:20.815Z,11
2023-05-07T03:17:27.927Z,11.1
2023-05-07T03:18:34.918Z,11.1
2023-05-07T03:19:41.877Z,11
2023-05-07T03:20:48.904Z,10.8
2023-05-07T03:21:56.977Z,11
2023-05-07T03:23:03.987Z,11.1
2023-05-07T03:24:10.916Z,11
2023-05-07T03:25:17.866Z,10.8
2023-05-07T03:26:24.859Z,10.9
2023-05-07T03:27:33.664Z,11
2023-05-07T03:28:41.041Z,11
2023-05-07T03:29:47.932Z,11
2023-05-07T03:30:54.915Z,10.9
2023-05-07T03:32:01.900Z,10.9
2023-05-07T03:33:08.892Z,10.8
2023-05-07T03:34:15.887Z,10.8
2023-05-07T03:35:22.803Z,10.8
2023-05-07T03:36:29.842Z,11
2023-05-07T03:37:37.115Z,11
2023-05-07T03:38:44.105Z,10.9
2023-05-07T03:39:51.118Z,10.9
2023-05-07T03:40:58.051Z,10.8
2023-05-07T03:42:04.920Z,10.9
2023-05-07T03:43:12.914Z,10.9
2023-05-07T03:44:19.746Z,10.9
2023-05-07T03:45:26.923Z,10.8
2023-05-07T03:46:33.902Z,10.8
2023-05-07T03:47:44.288Z,10.8
2023-05-07T03:48:51.233Z,10.9
2023-05-07T03:49:58.218Z,10.9
2023-05-07T03:51:05.212Z,11
2023-05-07T03:52:12.159Z,10.9
2023-05-07T03:53:19.076Z,10.9
2023-05-07T03:54:26.170Z,10.9
2023-05-07T03:55:33.147Z,10.8
2023-05-07T03:56:40.080Z,10.6
2023-05-07T03:57:47.103Z,10.7
2023-05-07T03:58:54.012Z,10.7
2023-05-07T04:00:01.036Z,10.7
2023-05-07T04:01:08.282Z,10.7
2023-05-07T04:02:15.278Z,10.7
2023-05-07T04:03:22.441Z,10.7
2023-05-07T04:04:29.396Z,10.8
2023-05-07T04:05:36.361Z,10.9
2023-05-07T04:06:43.333Z,10.9
2023-05-07T04:07:51.324Z,10.9
2023-05-07T04:08:58.274Z,10.7
2023-05-07T04:10:05.364Z,10.8
2023-05-07T04:11:12.681Z,10.8
2023-05-07T04:12:19.611Z,10.8
2023-05-07T04:13:26.827Z,10.9
2023-05-07T04:14:33.769Z,10.9
2023-05-07T04:15:40.909Z,10.8
2023-05-07T04:16:47.949Z,10.9
2023-05-07T04:17:55.937Z,10.7
2023-05-07T04:19:02.941Z,10.7
2023-05-07T04:20:11.008Z,10.7
2023-05-07T04:21:20.697Z,10.7
2023-05-07T04:22:27.735Z,10.6
2023-05-07T04:23:34.703Z,10.7
2023-05-07T04:24:41.826Z,10.7
2023-05-07T04:25:48.840Z,10.8
2023-05-07T04:26:55.878Z,10.7
2023-05-07T04:28:03.061Z,10.6
2023-05-07T04:29:10.113Z,10.6
2023-05-07T04:30:17.173Z,10.6
2023-05-07T04:31:24.186Z,10.6
2023-05-07T04:32:31.184Z,10.6
2023-05-07T04:33:38.168Z,10.6
2023-05-07T04:34:46.196Z,10.6
2023-05-07T04:35:53.137Z,10.5
2023-05-07T04:36:59.996Z,10.4
2023-05-07T04:38:06.929Z,10.4
2023-05-07T04:39:13.911Z,10.5
2023-05-07T04:40:20.831Z,10.2
2023-05-07T04:41:27.749Z,10.3
2023-05-07T04:42:35.606Z,10.4
2023-05-07T04:43:42.556Z,10.4
2023-05-07T04:44:49.473Z,10.3
2023-05-07T04:45:56.528Z,10.4
2023-05-07T04:47:03.285Z,10.5
2023-05-07T04:48:10.225Z,10.5
2023-05-07T04:49:18.994Z,10.2
2023-05-07T04:50:25.953Z,10
2023-05-07T04:51:33.040Z,9.9
2023-05-07T04:52:39.880Z,10.2
2023-05-07T04:53:46.745Z,10.3
2023-05-07T04:54:53.696Z,10.3
2023-05-07T04:56:00.606Z,10.5
2023-05-07T04:57:07.767Z,10.5
2023-05-07T04:58:14.933Z,10.4
2023-05-07T04:59:21.830Z,10.3
2023-05-07T05:00:28.762Z,10.3
2023-05-07T05:01:35.812Z,10.3
2023-05-07T05:02:42.779Z,10.3
2023-05-07T05:03:49.673Z,10.4
2023-05-07T05:04:56.590Z,10.3
2023-05-07T05:06:03.560Z,10.3
2023-05-07T05:07:10.464Z,10.1
2023-05-07T05:08:17.419Z,10.2
2023-05-07T05:09:24.320Z,10.2
2023-05-07T05:10:31.200Z,10.3
2023-05-07T05:11:38.127Z,9.9
2023-05-07T05:12:45.055Z,9.8
2023-05-07T05:13:52.234Z,9.8
2023-05-07T05:14:59.122Z,9.9
2023-05-07T05:16:06.048Z,9.9
2023-05-07T05:17:13.073Z,10.1
2023-05-07T05:18:20.145Z,10.2
2023-05-07T05:19:27.031Z,10.2
2023-05-07T05:20:33.939Z,10
2023-05-07T05:21:40.831Z,10.2
2023-05-07T05:22:47.722Z,10.1
2023-05-07T05:23:54.792Z,10
2023-05-07T05:25:01.875Z,10.2
2023-05-07T05:26:08.998Z,9.9
2023-05-07T05:27:15.916Z,9.8
2023-05-07T05:28:22.883Z,9.5
2023-05-07T05:29:29.800Z,9.4
2023-05-07T05:30:36.708Z,9.6
2023-05-07T05:31:43.731Z,9.7
2023-05-07T05:32:50.818Z,9.7
2023-05-07T05:33:57.566Z,9.7
2023-05-07T05:35:04.504Z,9.7
2023-05-07T05:36:11.656Z,9.8
2023-05-07T05:37:18.514Z,9.6
2023-05-07T05:38:25.426Z,9.3
2023-05-07T05:39:32.449Z,9.3
2023-05-07T05:40:40.414Z,9.2
2023-05-07T05:41:47.288Z,9.3
2023-05-07T05:42:54.292Z,9.4
2023-05-07T05:44:01.219Z,9.6
2023-05-07T05:45:08.247Z,9.6
2023-05-07T05:46:15.274Z,9.7
2023-05-07T05:47:22.375Z,9.8
2023-05-07T05:48:29.404Z,9.6
2023-05-07T05:49:36.346Z,9.7
2023-05-07T05:50:43.394Z,9.7
2023-05-07T05:51:50.352Z,9.6
2023-05-07T05:52:57.273Z,9.6
2023-05-07T05:54:04.292Z,9.5
2023-05-07T05:55:11.153Z,9.7
2023-05-07T05:56:18.138Z,9.6
2023-05-07T05:57:26.616Z,9.4
2023-05-07T05:58:32.854Z,9.3
2023-05-07T05:59:39.760Z,9.4
2023-05-07T06:00:46.727Z,9.4
2023-05-07T06:01:53.543Z,9.3
2023-05-07T06:03:02.773Z,9.2
2023-05-07T06:04:10.886Z,9.4
2023-05-07T06:05:17.921Z,9.6
2023-05-07T06:06:24.748Z,9.5
2023-05-07T06:07:31.663Z,9.3
2023-05-07T06:08:38.557Z,9.2
2023-05-07T06:09:45.621Z,9.2
2023-05-07T06:10:52.486Z,9.3
2023-05-07T06:12:00.652Z,9.5
2023-05-07T06:13:06.343Z,9.7
2023-05-07T06:14:13.304Z,9.6
2023-05-07T06:15:20.480Z,9.6
2023-05-07T06:16:28.564Z,9.3
2023-05-07T06:17:41.634Z,9.4
2023-05-07T06:18:49.889Z,9.4
2023-05-07T06:19:57.796Z,9.5
2023-05-07T06:21:04.663Z,9.6
2023-05-07T06:22:11.563Z,9.6
2023-05-07T06:23:18.467Z,9.7
2023-05-07T06:24:25.436Z,9.7
2023-05-07T06:25:32.445Z,9.7
2023-05-07T06:26:39.441Z,9.5
2023-05-07T06:27:46.454Z,9.5
2023-05-07T06:28:53.315Z,9.5
2023-05-07T06:30:00.416Z,9.4
2023-05-07T06:31:07.573Z,9.2
2023-05-07T06:32:19.627Z,9.1
2023-05-07T06:33:26.502Z,9.1
2023-05-07T06:34:34.455Z,9
2023-05-07T06:35:41.466Z,9
2023-05-07T06:36:48.273Z,9.2
2023-05-07T06:37:55.241Z,9.3
2023-05-07T06:39:02.201Z,9.3
2023-05-07T06:40:09.518Z,9.2
2023-05-07T06:41:16.238Z,9.2
2023-05-07T06:42:23.214Z,9.4
2023-05-07T06:43:30.141Z,9.3
2023-05-07T06:44:37.023Z,9.5
2023-05-07T06:45:44.032Z,9.6
2023-05-07T06:46:50.930Z,9.6
2023-05-07T06:47:57.892Z,9.6
2023-05-07T06:49:04.766Z,9.6
2023-05-07T06:50:11.956Z,9.7
2023-05-07T06:51:18.712Z,9.5
2023-05-07T06:52:25.564Z,9.6
2023-05-07T06:53:32.707Z,9.2
2023-05-07T06:54:39.840Z,9.1
2023-05-07T06:55:48.182Z,9.2
2023-05-07T06:56:55.071Z,9.3
2023-05-07T06:58:02.122Z,9.4
2023-05-07T06:59:08.928Z,9.5
2023-05-07T07:00:16.127Z,9.5
2023-05-07T07:01:23.398Z,9.6
2023-05-07T07:02:30.283Z,9.6
2023-05-07T07:03:37.118Z,9.7
2023-05-07T07:04:44.017Z,9.7
2023-05-07T07:05:51.158Z,9.5
2023-05-07T07:06:58.177Z,9.5
2023-05-07T07:08:05.085Z,9.7
2023-05-07T07:09:12.083Z,9.7
2023-05-07T07:10:19.934Z,9.6
2023-05-07T07:11:26.925Z,9.6
2023-05-07T07:12:33.988Z,9.7
2023-05-07T07:13:41.004Z,9.8
2023-05-07T07:14:47.954Z,9.7
2023-05-07T07:15:55.016Z,9.4
2023-05-07T07:17:01.964Z,9.4
2023-05-07T07:18:09.078Z,9.3
2023-05-07T07:19:15.921Z,9.4
2023-05-07T07:20:22.932Z,9.4
2023-05-07T07:21:29.931Z,9.3
2023-05-07T07:22:36.994Z,9.3
2023-05-07T07:23:43.921Z,9.3
2023-05-07T07:24:50.856Z,9.3
2023-05-07T07:25:57.797Z,9.1
2023-05-07T07:27:04.773Z,9.2
2023-05-07T07:28:11.851Z,9.3
2023-05-07T07:29:18.831Z,9
2023-05-07T07:30:25.880Z,9.2
2023-05-07T07:31:32.892Z,9.3
2023-05-07T07:32:40.765Z,9.4
2023-05-07T07:33:48.741Z,9.5
2023-05-07T07:34:55.608Z,9.5
2023-05-07T07:36:02.650Z,9.6
2023-05-07T07:37:09.769Z,9.6
2023-05-07T07:38:16.799Z,9.5
2023-05-07T07:39:23.687Z,9.5
2023-05-07T07:40:30.774Z,9.4
2023-05-07T07:41:40.694Z,8.9
2023-05-07T07:42:47.647Z,9.1
2023-05-07T07:43:54.564Z,9.2
2023-05-07T07:45:01.519Z,9.4
2023-05-07T07:46:08.791Z,9.4
2023-05-07T07:47:16.001Z,9.4
2023-05-07T07:48:22.897Z,9.4
2023-05-07T07:49:29.840Z,9.4
2023-05-07T07:50:44.830Z,9.3
2023-05-07T07:51:44.730Z,9.3
2023-05-07T07:52:51.869Z,9.3
2023-05-07T07:53:58.803Z,9.3
2023-05-07T07:55:05.717Z,9.4
2023-05-07T07:56:12.885Z,9.2
2023-05-07T07:57:19.862Z,9.5
2023-05-07T07:58:26.848Z,9.5
2023-05-07T07:59:33.798Z,9.4
2023-05-07T08:00:40.664Z,9.4
2023-05-07T08:01:47.590Z,9.5
2023-05-07T08:02:54.832Z,9.5
2023-05-07T08:04:01.819Z,9.5
2023-05-07T08:05:08.602Z,9.1
2023-05-07T08:06:15.571Z,9.1
2023-05-07T08:07:22.570Z,9
2023-05-07T08:08:29.540Z,9.2
2023-05-07T08:09:36.579Z,9.3
2023-05-07T08:10:43.377Z,9.2
2023-05-07T08:11:50.332Z,9.2
2023-05-07T08:12:57.313Z,9.2
2023-05-07T08:14:04.306Z,9.1
2023-05-07T08:15:11.286Z,9
2023-05-07T08:16:18.248Z,9
2023-05-07T08:17:25.269Z,9.2
2023-05-07T08:18:32.105Z,9.4
2023-05-07T08:19:38.982Z,9.5
2023-05-07T08:20:46.033Z,9.6
2023-05-07T08:21:52.971Z,9.5
2023-05-07T08:22:59.860Z,9.5
2023-05-07T08:24:06.766Z,9.5
2023-05-07T08:25:13.722Z,9.5
2023-05-07T08:26:20.724Z,9.7
2023-05-07T08:27:27.661Z,9.6
2023-05-07T08:28:34.567Z,9.6
2023-05-07T08:29:41.528Z,9.7
2023-05-07T08:30:48.578Z,9.8
2023-05-07T08:31:55.557Z,9.7
2023-05-07T08:33:02.518Z,9.6
2023-05-07T08:34:10.136Z,9.6
2023-05-07T08:35:16.402Z,9.7
2023-05-07T08:36:23.504Z,9.9
2023-05-07T08:37:30.410Z,10
2023-05-07T08:38:37.387Z,10
2023-05-07T08:39:47.119Z,10
2023-05-07T08:40:54.155Z,10
2023-05-07T08:42:01.086Z,10
2023-05-07T08:43:08.137Z,9.9
2023-05-07T08:44:18.194Z,10
2023-05-07T08:45:25.312Z,9.9
2023-05-07T08:46:32.351Z,10
2023-05-07T08:47:39.236Z,10
2023-05-07T08:48:49.132Z,10
2023-05-07T08:49:56.121Z,10.1
2023-05-07T08:51:03.220Z,10
2023-05-07T08:52:10.340Z,10
2023-05-07T08:53:17.155Z,9.7
2023-05-07T08:54:24.042Z,9.7
2023-05-07T08:55:30.964Z,9.8
2023-05-07T08:56:37.936Z,10
2023-05-07T08:57:44.901Z,10.1
2023-05-07T08:58:51.780Z,10
2023-05-07T08:59:58.672Z,10.1
2023-05-07T09:01:05.563Z,10
2023-05-07T09:02:17.796Z,10.1
2023-05-07T09:03:24.700Z,10
2023-05-07T09:04:31.563Z,10.1
2023-05-07T09:05:38.616Z,10.2
2023-05-07T09:06:46.491Z,10.2
2023-05-07T09:07:54.653Z,10.3
2023-05-07T09:09:00.330Z,10.1
2023-05-07T09:10:07.330Z,10.2
2023-05-07T09:11:14.455Z,10.4
2023-05-07T09:12:21.536Z,10.4
2023-05-07T09:13:28.396Z,9.9
2023-05-07T09:14:35.316Z,10.1
2023-05-07T09:15:42.459Z,10.2
2023-05-07T09:16:49.507Z,10
2023-05-07T09:17:56.434Z,10.1
2023-05-07T09:19:03.311Z,9.9
2023-05-07T09:20:11.347Z,9.9
2023-05-07T09:21:17.467Z,9.7
2023-05-07T09:22:24.412Z,9.9
2023-05-07T09:23:31.572Z,10.2
2023-05-07T09:24:38.513Z,10.3
2023-05-07T09:25:45.490Z,10.3
2023-05-07T09:26:52.775Z,10.3
2023-05-07T09:27:59.913Z,10.5
2023-05-07T09:29:06.791Z,10.4
2023-05-07T09:30:13.751Z,10.4
2023-05-07T09:31:21.711Z,10.3
2023-05-07T09:32:30.635Z,10.2
2023-05-07T09:33:37.584Z,10
2023-05-07T09:34:44.459Z,10.2
2023-05-07T09:35:51.376Z,10.2
2023-05-07T09:36:58.492Z,10.1
2023-05-07T09:38:08.477Z,10.2
2023-05-07T09:39:15.453Z,10.3
2023-05-07T09:40:22.422Z,10.4
2023-05-07T09:41:29.405Z,10.3
2023-05-07T09:42:36.361Z,10.3
2023-05-07T09:43:43.398Z,10.5
2023-05-07T09:44:50.202Z,10.4
2023-05-07T09:45:57.215Z,10.3
2023-05-07T09:47:04.157Z,10.3
2023-05-07T09:48:11.108Z,10.3
2023-05-07T09:49:19.768Z,10.1
2023-05-07T09:50:24.913Z,10.1
2023-05-07T09:51:31.908Z,10
2023-05-07T09:52:45.457Z,9.9
2023-05-07T09:53:52.382Z,10.1
2023-05-07T09:54:59.368Z,10
2023-05-07T09:56:06.266Z,9.8
2023-05-07T09:57:13.303Z,9.8
2023-05-07T09:58:20.224Z,9.9
2023-05-07T09:59:29.869Z,10
2023-05-07T10:00:34.943Z,9.9
2023-05-07T10:01:42.041Z,10
2023-05-07T10:02:48.911Z,10.1
2023-05-07T10:03:58.069Z,9.9
2023-05-07T10:05:04.782Z,9.9
2023-05-07T10:06:12.726Z,10.1
2023-05-07T10:07:19.803Z,10.1
2023-05-07T10:08:26.743Z,9.8
2023-05-07T10:09:33.677Z,9.9
2023-05-07T10:10:40.579Z,9.9
2023-05-07T10:11:47.509Z,9.9
2023-05-07T10:12:54.554Z,10
2023-05-07T10:14:04.762Z,10
2023-05-07T10:15:12.945Z,10
2023-05-07T10:16:19.572Z,9.8
2023-05-07T10:17:26.511Z,9.9
2023-05-07T10:18:33.466Z,10.1
2023-05-07T10:19:40.512Z,10.2
2023-05-07T10:20:47.444Z,10.3
2023-05-07T10:21:54.326Z,10.3
2023-05-07T10:23:01.262Z,10.4
2023-05-07T10:24:08.211Z,10.5
2023-05-07T10:25:15.272Z,10.2
2023-05-07T10:26:23.152Z,9.7
2023-05-07T10:27:30.970Z,9.9
2023-05-07T10:28:37.914Z,10.1
2023-05-07T10:29:44.869Z,9.8
2023-05-07T10:30:56.993Z,9.7
2023-05-07T10:32:08.921Z,9.9
2023-05-07T10:33:27.070Z,9.6
2023-05-07T10:34:34.075Z,9.6
2023-05-07T10:35:41.027Z,9.8
2023-05-07T10:36:48.056Z,9.9
2023-05-07T10:37:55.003Z,9.9
2023-05-07T10:39:02.721Z,9.7
2023-05-07T10:40:09.776Z,9.7
2023-05-07T10:41:17.151Z,9.6
2023-05-07T10:42:24.883Z,9.6
2023-05-07T10:43:31.796Z,9.7
2023-05-07T10:44:44.799Z,9.7
2023-05-07T10:45:51.781Z,9.6
2023-05-07T10:47:09.303Z,9.8
2023-05-07T10:49:26.164Z,10
2023-05-07T10:50:33.286Z,10.1
2023-05-07T10:51:42.963Z,10.2
2023-05-07T10:52:49.870Z,10.3
2023-05-07T10:54:08.269Z,10.1
2023-05-07T10:55:16.042Z,10.2
2023-05-07T10:56:23.172Z,10.1
2023-05-07T10:57:30.174Z,10.2
2023-05-07T10:58:37.098Z,10
2023-05-07T10:59:44.064Z,10
2023-05-07T11:00:51.135Z,9.9
2023-05-07T11:01:58.244Z,10
2023-05-07T11:03:05.195Z,10.1
2023-05-07T11:04:12.131Z,10.3
2023-05-07T11:05:19.280Z,10.2
2023-05-07T11:06:26.303Z,10.1
2023-05-07T11:07:33.288Z,10
2023-05-07T11:08:40.317Z,9.8
2023-05-07T11:09:57.752Z,9.9
2023-05-07T11:11:05.632Z,9.8
2023-05-07T11:12:12.540Z,10
2023-05-07T11:13:19.728Z,9.9
2023-05-07T11:14:36.782Z,9.9
2023-05-07T11:15:46.534Z,10.1
2023-05-07T11:16:53.438Z,9.9
2023-05-07T11:18:00.451Z,10
2023-05-07T11:19:07.624Z,9.8
2023-05-07T11:20:14.595Z,9.8
2023-05-07T11:21:21.531Z,9.9
2023-05-07T11:22:38.703Z,9.7
2023-05-07T11:23:46.608Z,9.8
2023-05-07T11:24:53.747Z,9.9
2023-05-07T11:26:00.767Z,9.9
2023-05-07T11:27:13.050Z,9.7
2023-05-07T11:28:20.048Z,9.8
2023-05-07T11:29:27.047Z,9.8
2023-05-07T11:30:34.015Z,9.8
2023-05-07T11:31:41.111Z,9.7
2023-05-07T11:32:48.222Z,10
2023-05-07T11:33:55.025Z,10.2
2023-05-07T11:35:02.036Z,10.3
2023-05-07T11:36:09.088Z,9.8
2023-05-07T11:37:16.195Z,9.8
2023-05-07T11:38:23.152Z,10
2023-05-07T11:39:30.124Z,9.9
2023-05-07T11:40:40.344Z,9.9
2023-05-07T11:41:53.499Z,9.7
2023-05-07T11:42:59.555Z,9.6
2023-05-07T11:44:06.482Z,9.8
2023-05-07T11:45:13.594Z,9.9
2023-05-07T11:46:21.054Z,10
2023-05-07T11:47:28.082Z,9.9
2023-05-07T11:48:35.023Z,9.8
2023-05-07T11:49:46.610Z,9.9
2023-05-07T11:50:57.552Z,9.9
2023-05-07T11:52:06.630Z,9.7
2023-05-07T11:53:13.934Z,9.5
2023-05-07T11:54:19.341Z,9.6
2023-05-07T11:55:27.198Z,9.9
2023-05-07T11:56:34.224Z,9.8
2023-05-07T11:57:41.144Z,9.8
2023-05-07T11:58:48.071Z,9.7
2023-05-07T11:59:55.001Z,9.6
2023-05-07T12:01:01.987Z,9.6
2023-05-07T12:02:09.963Z,9.7
2023-05-07T12:03:19.916Z,9.6
2023-05-07T12:04:27.785Z,9.7
2023-05-07T12:05:34.691Z,9.7
2023-05-07T12:06:41.625Z,9.8
2023-05-07T12:07:48.592Z,9.9
2023-05-07T12:08:55.535Z,9.7
2023-05-07T12:10:03.352Z,9.7
2023-05-07T12:11:10.407Z,9.7
2023-05-07T12:12:19.943Z,9.7
2023-05-07T12:13:28.912Z,9.8
2023-05-07T12:14:36.725Z,9.8
2023-05-07T12:15:44.608Z,9.9
2023-05-07T12:16:51.628Z,9.8
2023-05-07T12:17:58.665Z,9.8
2023-05-07T12:19:09.156Z,9.7
2023-05-07T12:20:19.089Z,10.1
2023-05-07T12:21:26.078Z,10.2
2023-05-07T12:22:33.127Z,10
2023-05-07T12:23:41.267Z,10.1
2023-05-07T12:24:48.254Z,10.2
2023-05-07T12:25:55.109Z,10.4
2023-05-07T12:27:03.032Z,10.5
2023-05-07T12:28:09.977Z,10.3
2023-05-07T12:29:16.926Z,10
2023-05-07T12:30:30.795Z,10
2023-05-07T12:31:40.858Z,9.8
2023-05-07T12:32:47.808Z,9.9
2023-05-07T12:33:57.380Z,9.8
2023-05-07T12:35:04.361Z,9.7
2023-05-07T12:36:11.503Z,9.8
2023-05-07T12:37:18.575Z,10
2023-05-07T12:38:29.527Z,10.2
2023-05-07T12:39:40.116Z,10.4
2023-05-07T12:40:55.683Z,10.3
2023-05-07T12:42:02.572Z,10.3
2023-05-07T12:43:09.580Z,10.2
2023-05-07T12:44:19.440Z,10.3
2023-05-07T12:45:30.421Z,10
2023-05-07T12:46:43.476Z,10.1
2023-05-07T12:47:50.461Z,10.2
2023-05-07T12:48:59.622Z,10.1
2023-05-07T12:50:06.475Z,10
2023-05-07T12:51:13.599Z,9.8
2023-05-07T12:52:20.542Z,9.9
2023-05-07T12:53:28.504Z,9.9
2023-05-07T12:54:35.642Z,9.9
2023-05-07T12:55:42.468Z,9.8
2023-05-07T12:56:49.386Z,9.5
2023-05-07T12:57:56.354Z,9.6
2023-05-07T12:59:03.444Z,9.6
2023-05-07T13:00:10.368Z,9.5
2023-05-07T13:01:17.662Z,9.6
2023-05-07T13:02:24.768Z,9.8
2023-05-07T13:03:36.875Z,9.5
2023-05-07T13:04:44.744Z,9.5
2023-05-07T13:05:51.626Z,9.9
2023-05-07T13:07:01.380Z,9.9
2023-05-07T13:08:08.344Z,9.8
2023-05-07T13:09:15.492Z,9.5
2023-05-07T13:10:22.636Z,9.5
2023-05-07T13:11:29.794Z,9.7
2023-05-07T13:12:36.893Z,9.6
2023-05-07T13:13:43.751Z,9.6
2023-05-07T13:14:50.711Z,9.6
2023-05-07T13:15:57.748Z,9.6
2023-05-07T13:17:04.831Z,9.8
2023-05-07T13:18:11.907Z,9.6
2023-05-07T13:19:18.865Z,9.7
2023-05-07T13:20:25.768Z,9.7
2023-05-07T13:21:32.741Z,9.7
2023-05-07T13:22:39.690Z,9.4
2023-05-07T13:23:47.265Z,9.4
2023-05-07T13:24:54.291Z,9.3
2023-05-07T13:26:06.324Z,9.2
2023-05-07T13:27:08.338Z,9.2
2023-05-07T13:28:15.423Z,9.3
2023-05-07T13:29:22.303Z,9.3
2023-05-07T13:30:29.344Z,9.5
2023-05-07T13:31:36.372Z,9.4
2023-05-07T13:32:43.342Z,9.3
2023-05-07T13:33:50.374Z,9.1
2023-05-07T13:34:57.394Z,9.1
2023-05-07T13:36:04.515Z,9.3
2023-05-07T13:37:11.938Z,9.3
2023-05-07T13:38:18.720Z,9.5
2023-05-07T13:39:25.780Z,9.5
2023-05-07T13:40:32.753Z,9.3
2023-05-07T13:41:39.922Z,9.5
2023-05-07T13:42:46.948Z,9.6
2023-05-07T13:43:53.896Z,9.4
2023-05-07T13:45:00.885Z,9.4
2023-05-07T13:46:08.113Z,9.4
2023-05-07T13:47:15.068Z,9.3
2023-05-07T13:48:22.039Z,9.5
2023-05-07T13:49:29.033Z,9.6
2023-05-07T13:50:36.093Z,9.7
2023-05-07T13:51:43.063Z,9.8
2023-05-07T13:52:49.871Z,9.4
2023-05-07T13:53:56.827Z,9.2
2023-05-07T13:55:03.851Z,9.5
2023-05-07T13:56:11.030Z,9.5
2023-05-07T13:57:18.134Z,9.6
2023-05-07T13:58:25.015Z,9.6
2023-05-07T13:59:32.027Z,9.7
2023-05-07T14:00:39.109Z,9.6
2023-05-07T14:01:46.039Z,9.6
2023-05-07T14:02:53.167Z,9.6
2023-05-07T14:04:00.997Z,9.8
2023-05-07T14:05:07.884Z,9.7
2023-05-07T14:06:14.994Z,9.9
2023-05-07T14:07:21.964Z,9.8
2023-05-07T14:08:31.604Z,9.9
2023-05-07T14:09:35.920Z,9.7
2023-05-07T14:10:42.853Z,9.9
2023-05-07T14:11:50.024Z,10
2023-05-07T14:12:57.024Z,10
2023-05-07T14:14:03.899Z,10.1
2023-05-07T14:15:10.795Z,10.1
2023-05-07T14:16:17.851Z,10.2
2023-05-07T14:17:24.821Z,10.3
2023-05-07T14:18:31.662Z,10.3
2023-05-07T14:19:38.633Z,10.2
2023-05-07T14:20:45.585Z,10.4
2023-05-07T14:21:52.574Z,10.4
2023-05-07T14:23:00.459Z,10.2
2023-05-07T14:24:07.362Z,10.1
2023-05-07T14:25:14.573Z,9.9
2023-05-07T14:26:21.334Z,10
2023-05-07T14:27:28.363Z,9.9
2023-05-07T14:28:35.349Z,9.7
2023-05-07T14:29:42.307Z,9.7
2023-05-07T14:30:49.257Z,9.5
2023-05-07T14:31:56.188Z,9.6
2023-05-07T14:33:03.318Z,9.7
2023-05-07T14:34:13.606Z,9.5
2023-05-07T14:35:32.680Z,9.7
2023-05-07T14:36:44.231Z,9.7
2023-05-07T14:37:51.226Z,9.8
2023-05-07T14:38:58.285Z,9.5
2023-05-07T14:40:05.206Z,9.6
2023-05-07T14:41:12.588Z,9.6
2023-05-07T14:42:20.562Z,9.5
2023-05-07T14:43:27.547Z,9.4
2023-05-07T14:44:34.513Z,9.5
2023-05-07T14:45:41.447Z,9.4
2023-05-07T14:46:48.431Z,9.5
2023-05-07T14:47:55.551Z,9.4
2023-05-07T14:49:03.272Z,9.5
2023-05-07T14:50:10.205Z,9.5
2023-05-07T14:51:19.039Z,9.6
2023-05-07T14:52:25.952Z,9.5
2023-05-07T14:53:32.990Z,9.6
2023-05-07T14:54:40.042Z,9.5
2023-05-07T14:55:46.921Z,9.5
2023-05-07T14:56:53.966Z,9.5
2023-05-07T14:58:00.894Z,9.6
2023-05-07T14:59:07.833Z,9.7
2023-05-07T15:00:14.805Z,9.6
2023-05-07T15:01:22.016Z,9.4
2023-05-07T15:02:28.996Z,9.4
2023-05-07T15:03:35.900Z,9.5
2023-05-07T15:04:42.968Z,9.7
2023-05-07T15:05:53.755Z,9.7
2023-05-07T15:07:00.833Z,9.7
2023-05-07T15:08:07.864Z,9.9
2023-05-07T15:09:14.861Z,10
2023-05-07T15:10:21.784Z,9.7
2023-05-07T15:11:28.721Z,9.6
2023-05-07T15:12:35.766Z,9.7
2023-05-07T15:13:42.810Z,9.7
2023-05-07T15:14:49.738Z,9.7
2023-05-07T15:15:57.603Z,9.5
2023-05-07T15:17:04.557Z,9.5
2023-05-07T15:18:11.572Z,9.5
2023-05-07T15:19:18.485Z,9.5